Archival Weather

Westchester County

White Plains, New York (KHPN)

Report from: Friday, February 23, 2024 6:56 PM EST
Current time: Wednesday, May 29, 2024 8:33 PM EDT

Current weather – Weather history – Daily summaries
Weather forecast

Temperature5.0°C (41.0°F)
Wind chill2.8°C (37.1°F)
Dew point2.2°C (36.0°F)
Winds 5 kts (2.6 m/s, 5.8 mph) Northwest (320°)
Visibility10 mi. (16.1 km)
Clouds Sky clear
Altimeter29.46 in.Hg (998 mB)
Relative humidity82 %
Density altitude-580 ft. (-177 m)
Sea-level pressure99.8 kPa (998 mB, 29.47 in.Hg)
Max temp last 6 hours7.8°C (46.0°F)
Min temp last 6 hours5.0°C (41.0°F)
Remarks Automated weather observing station with precipitation discriminator
Pressure rising more quickly
Flight conditions Visual Meteorological Conditions
Raw dataKHPN 232356Z 32005KT 10SM CLR 05/02 A2946 RMK AO2 SLP980 T00500022 10078 20050 53011
An error has occurred. This application may no longer respond until reloaded. Reload 🗙